Flight Track Log - Related Links

Times and Time Zones

All times are in EDT time to prevent confusion due to time zone crossing. See the RPA3869 flight status page for this flight to view local times or setup timezone preferences in your user account.

Time Position Orientation Groundspeed Altitude Reporting Facility
EDT Latitude Longitude Course Direction KTS MPH feet Rate Location/Type
Fri 12:28:16 PM 33.7636 -78.7283 52° Northeast 244 281 8,000  Level Jacksonville Center
Fri 12:29:00 PM 34.0086 -78.3977 46° Northeast  Level FlightAware
Fri 12:29:16 PM 33.8119 -78.6783 41° Northeast 252 290 9,900  Level Jacksonville Center
Fri 12:30:00 PM 34.0634 -78.3066 59° Northeast  Level FlightAware
Fri 12:30:16 PM 33.8703 -78.6156 42° Northeast 264 304 10,700  Level Jacksonville Center
Fri 12:31:00 PM 34.1215 -78.2281 56° Northeast  Level FlightAware
Fri 12:31:16 PM 33.9242 -78.5428 48° Northeast 281 323 12,300  Level Jacksonville Center
Fri 12:32:00 PM 34.1738 -78.1339 56° Northeast  Level FlightAware
Fri 12:32:16 PM 33.9736 -78.4628 53° Northeast 286 329 13,900  Level Jacksonville Center
Fri 12:33:00 PM 34.2340 -78.0489 52° Northeast  Level FlightAware
Fri 12:34:28 PM 34.0786 -78.3022 52° Northeast 288 331 17,000  Level Washington Center
Fri 12:35:28 PM 34.1283 -78.2261 52° Northeast 288 331 18,000 1,119 Climbing Washington Center
Fri 12:36:26 PM 34.1758 -78.1522 52° Northeast 288 331 19,200 1,160 Climbing Washington Center
Fri 12:37:27 PM 34.2275 -78.0786 50° Northeast 288 331 20,300 976 Climbing Washington Center
Fri 12:38:29 PM 34.2664 -78.0069 57° Northeast 283 326 21,200 836 Climbing Washington Center
Fri 12:39:29 PM 34.3222 -77.9256 50° Northeast 283 326 22,000 763 Climbing Washington Center
Fri 12:40:27 PM 34.3797 -77.8694 39° Northeast 278 320 22,700 763 Climbing Washington Center
Fri 12:41:27 PM 34.4572 -77.8514 11° North 265 305 23,500 744 Climbing Washington Center
Fri 12:42:28 PM 34.5328 -77.8333 11° North 265 305 24,200 645 Climbing Washington Center
Fri 12:43:28 PM 34.6081 -77.8150 11° North 270 311 24,800 350 Climbing Washington Center
Fri 12:44:28 PM 34.6878 -77.7944 12° North 275 316 24,900 101 Climbing Washington Center
Fri 12:45:27 PM 34.7717 -77.7742 11° North 287 330 25,000 50 Climbing Washington Center
Fri 12:46:28 PM 34.8472 -77.7508 14° North 298 343 25,000  Level Washington Center
Fri 12:47:28 PM 34.9353 -77.7303 11° North 303 349 25,000  Level Washington Center
Fri 12:48:29 PM 35.0231 -77.7097 11° North 315 362 25,000  Level Washington Center
Fri 12:49:29 PM 35.1133 -77.6867 12° North 321 369 25,000  Level Washington Center
Fri 12:50:27 PM 35.2075 -77.6614 12° North 326 375 25,000  Level Washington Center
Fri 12:51:28 PM 35.2936 -77.6381 12° North 326 375 25,000  Level Washington Center
Fri 12:52:29 PM 35.3878 -77.6175 10° North 326 375 25,000  Level Washington Center
Fri 12:53:27 PM 35.4778 -77.5942 12° North 331 381 25,000  Level Washington Center
Fri 12:54:28 PM 35.5806 -77.5689 11° North 338 389 25,000  Level Washington Center
Fri 12:55:29 PM 35.6728 -77.5456 12° North 338 389 25,000  Level Washington Center
Fri 12:56:29 PM 35.7628 -77.5219 12° North 331 381 25,000  Level Washington Center
Fri 12:57:27 PM 35.8550 -77.5011 10° North 331 381 25,000  Level Washington Center
Fri 12:58:28 PM 35.9450 -77.4778 12° North 331 381 25,000  Level Washington Center
Fri 12:59:29 PM 36.0372 -77.4542 12° North 331 381 25,000  Level Washington Center
Fri 01:00:27 PM 36.1294 -77.4308 12° North 331 381 25,000  Level Washington Center
Fri 01:01:28 PM 36.2069 -77.4094 13° North 328 377 25,000  Level Washington Center
Fri 01:02:29 PM 36.2992 -77.3858 12° North 323 372 25,000  Level Washington Center
Fri 01:03:29 PM 36.3914 -77.3619 12° North 323 372 25,000  Level Washington Center
Fri 01:04:27 PM 36.4833 -77.3383 12° North 329 379 25,000  Level Washington Center
Fri 01:05:28 PM 36.5756 -77.3144 12° North 334 384 25,000  Level Washington Center
Fri 01:06:29 PM 36.6656 -77.2906 12° North 334 384 25,000  Level Washington Center
Fri 01:07:29 PM 36.7617 -77.2772 North 334 384 25,000  Level Washington Center
Fri 01:08:29 PM 36.8622 -77.2481 13° North 334 384 25,000  Level Washington Center
Fri 01:09:27 PM 36.9442 -77.2214 15° North 334 384 25,000  Level Washington Center
Fri 01:10:28 PM 37.0486 -77.1950 11° North 334 384 25,000  Level Washington Center
Fri 01:11:29 PM 37.1283 -77.1731 12° North 334 384 25,000 -403 Level Washington Center
Fri 01:12:27 PM 37.2331 -77.1467 11° North 334 384 24,200 -864 Descending Washington Center
Fri 01:13:27 PM 37.3189 -77.1222 13° North 347 399 23,300 -595 Descending Washington Center
Fri 01:14:28 PM 37.4153 -77.0667 25° Northeast 347 399 23,000 -148 Descending Washington Center
Fri 01:15:29 PM 37.4931 -77.0211 25° Northeast 342 394 23,000  Level Washington Center
Fri 01:16:27 PM 37.5878 -76.9650 25° Northeast 342 394 23,000  Level Washington Center
Fri 01:17:28 PM 37.6758 -76.9117 26° Northeast 342 394 23,000  Level Washington Center
Fri 01:18:29 PM 37.7619 -76.8578 26° Northeast 342 394 23,000  Level Washington Center
Fri 01:19:27 PM 37.8500 -76.8067 25° Northeast 347 399 23,000  Level Washington Center
Fri 01:20:27 PM 37.9403 -76.7528 25° Northeast 342 394 23,000  Level Washington Center
Fri 01:21:28 PM 38.0283 -76.7017 25° Northeast 342 394 23,000 -443 Level Washington Center
Fri 01:22:29 PM 38.1100 -76.6578 23° Northeast 347 399 22,100 -1,109 Descending Washington Center
Fri 01:23:27 PM 38.1778 -76.5558 50° Northeast 352 405 20,800 -1,322 Descending Washington Center
Fri 01:24:27 PM 38.2472 -76.4564 48° Northeast 358 412 19,500 -1,488 Descending Washington Center
Fri 01:25:28 PM 38.3311 -76.3858 33° Northeast 365 420 17,800 -1,574 Descending Washington Center
Fri 01:26:29 PM 38.4292 -76.3575 13° North 351 404 16,300 -1,563 Descending Washington Center
Fri 01:27:27 PM 38.5192 -76.3347 11° North 340 391 14,700 -1,563 Descending Washington Center
Fri 01:28:28 PM 38.6047 -76.3064 15° North 328 377 13,200 -836 Descending Washington Center
Fri 01:29:29 PM 38.6925 -76.2806 13° North 322 371 13,000 -50 Descending Washington Center
Fri 01:30:29 PM 38.7803 -76.2519 14° North 317 365 13,100 -353 Climbing Washington Center
Fri 01:31:28 PM 38.8700 -76.2236 14° North 317 365 12,300 -908 Descending Washington Center
Fri 01:32:28 PM 38.9536 -76.2003 12° North 317 365 11,300 -655 Descending Washington Center
Fri 01:33:27 PM 39.0369 -76.1742 14° North 312 359 11,000 -202 Descending Washington Center
Fri 01:34:27 PM 39.1331 -76.1428 14° North 320 368 10,900 -50 Descending Washington Center
Fri 01:35:27 PM 39.2164 -76.1139 15° North 314 361 10,900  Level Washington Center
Fri 01:36:29 PM 39.2958 -76.0689 24° Northeast 308 354 10,900  Level Washington Center
Fri 01:37:27 PM 39.3547 -75.9700 52° Northeast 314 361 10,900 33 Level Washington Center
Fri 01:39:33 PM 39.4667 -75.7500 57° Northeast 338 389 11,000 34 Climbing Philadelphia TRACON
Fri 01:40:26 PM 39.5000 -75.6667 63° Northeast 339 390 11,000  Level Philadelphia TRACON
Fri 01:41:21 PM 39.5500 -75.5667 57° Northeast 338 389 11,000  Level Philadelphia TRACON
Fri 01:42:15 PM 39.6000 -75.4833 52° Northeast 337 388 11,000  Level Philadelphia TRACON
Fri 01:43:27 PM 39.6667 -75.3667 53° Northeast 337 388 11,000  Level Philadelphia TRACON
Fri 01:44:21 PM 39.7167 -75.2667 57° Northeast 339 390 11,000 -158 Level Philadelphia TRACON
Fri 01:45:21 PM 39.7667 -75.1667 57° Northeast 323 372 10,700 -700 Descending Philadelphia TRACON
Fri 01:46:21 PM 39.8167 -75.0833 52° Northeast 296 341 9,600 -1,091 Descending Philadelphia TRACON
Fri 01:47:33 PM 39.8667 -74.9667 61° Northeast 287 330 8,300 -1,091 Descending Philadelphia TRACON
Fri 01:48:22 PM 39.9167 -74.9167 37° Northeast 268 308 7,400 -523 Descending Philadelphia TRACON
Fri 01:50:02 PM 39.9833 -74.8000 53° Northeast 266 306 7,000 -150 Descending New TRACON
Fri 01:51:02 PM 40.0333 -74.7333 46° Northeast 270 311 7,000  Level New TRACON
Fri 01:52:02 PM 40.0833 -74.6500 52° Northeast 272 313 7,000 50 Level New TRACON
Fri 01:53:02 PM 40.1333 -74.5833 46° Northeast 273 314 7,100 53 Climbing New TRACON
Fri 01:53:56 PM 40.1833 -74.5167 46° Northeast 271 312 7,100 -400 Level New TRACON
Fri 01:55:02 PM 40.2500 -74.4500 37° Northeast 259 298 6,300 -667 Descending New TRACON
Fri 01:56:02 PM 40.3000 -74.4167 27° Northeast 232 267 5,700 -950 Descending New TRACON
Fri 01:57:02 PM 40.3667 -74.3667 30° Northeast 250 288 4,400 -1,300 Descending New TRACON
Fri 01:58:02 PM 40.4333 -74.3333 21° North 243 280 3,100 -700 Descending New TRACON
Fri 01:59:02 PM 40.4833 -74.3000 27° Northeast 220 253 3,000 -50 Descending New TRACON
Fri 02:00:02 PM 40.5333 -74.2667 27° Northeast 200 230 3,000  Level New TRACON

Login

Don't have an account? Register now (free) for customized features, flight alerts, and more!